Home > Products > Valid Products > TAF

000
FTUS43 KFGF 040520
TAFGFK
TAF
KGFK 040520Z 0406/0506 15015KT P6SM BKN150
      TEMPO 0409/0412 BKN012
     FM041600 15012KT P6SM BKN250
     FM050000 16010KT P6SM VCTS BKN050CB=



000
FTUS43 KFGF 040520
TAFFAR
TAF
KFAR 040520Z 0406/0506 14012KT P6SM SCT250
     FM041600 15012KT P6SM BKN080=



000
FTUS43 KFGF 032323
TAFGFK
TAF
KGFK 032323Z 0400/0424 15017KT P6SM SCT100
     FM041500 14012KT P6SM SCT100 SCT250=



000
FTUS43 KFGF 032323
TAFFAR
TAF
KFAR 032323Z 0400/0424 14015KT P6SM SCT100
     FM041500 14013KT P6SM SCT100 SCT250=



000
FTUS43 KFGF 032323
TAFGFK
TAF
KGFK 032323Z 0400/0424 15017KT P6SM SCT100
     FM041500 14012KT P6SM SCT100 SCT250=



000
FTUS43 KFGF 032323
TAFFAR
TAF
KFAR 032323Z 0400/0424 14015KT P6SM SCT100
     FM041500 14013KT P6SM SCT100 SCT250=



000
FTUS43 KFGF 031734
TAFFAR
TAF
KFAR 031734Z 0318/0418 15016G24KT P6SM SKC
     FM040200 15012KT P6SM SKC
     FM041400 15012G18KT P6SM BKN250=



000
FTUS43 KFGF 031734
TAFGFK
TAF
KGFK 031734Z 0318/0418 15015G22KT P6SM SKC
     FM040200 15010KT P6SM SKC
     FM041200 14008KT P6SM BKN250=



000
FTUS43 KFGF 031734
TAFFAR
TAF
KFAR 031734Z 0318/0418 15016G24KT P6SM SKC
     FM040200 15012KT P6SM SKC
     FM041400 15012G18KT P6SM BKN250=



000
FTUS43 KFGF 031734
TAFGFK
TAF
KGFK 031734Z 0318/0418 15015G22KT P6SM SKC
     FM040200 15010KT P6SM SKC
     FM041200 14008KT P6SM BKN250=



000
FTUS43 KFGF 031524 AAA
TAFFAR
TAF AMD
KFAR 031524Z 0315/0412 15014KT P6SM OVC012
      TEMPO 0315/0316 SCT012
     FM031700 15016G24KT P6SM SKC=



000
FTUS43 KFGF 031524 AAA
TAFFAR
TAF AMD
KFAR 031524Z 0315/0412 15014KT P6SM OVC012
      TEMPO 0315/0316 SCT012
     FM031700 15016G24KT P6SM SKC=



000
FTUS43 KFGF 031522 AAC
TAFGFK
TAF AMD
KGFK 031522Z 0315/0412 15014KT P6SM OVC012
      TEMPO 0316/0317 SCT012
     FM031700 15018G26KT P6SM SKC=



000
FTUS43 KFGF 031405 AAB
TAFGFK
TAF AMD
KGFK 031405Z 0314/0412 15014KT P6SM OVC006
     FM031500 15018KT P6SM SKC
      TEMPO 0315/0316 BKN006=



000
FTUS43 KFGF 031405 AAB
TAFGFK
TAF AMD
KGFK 031405Z 0314/0412 15014KT P6SM OVC006
     FM031500 15018KT P6SM SKC
      TEMPO 0315/0316 BKN006=



000
FTUS43 KFGF 031219 AAA
TAFGFK
TAF AMD
KGFK 031219Z 0312/0412 15014KT 3SM BR OVC004
      TEMPO 0312/0314 1SM BR
     FM031500 15018KT P6SM SKC=



000
FTUS43 KFGF 031219 AAA
TAFGFK
TAF AMD
KGFK 031219Z 0312/0412 15014KT 3SM BR OVC004
      TEMPO 0312/0314 1SM BR
     FM031500 15018KT P6SM SKC=



000
FTUS43 KFGF 031122
TAFFAR
TAF
KFAR 031122Z 0312/0412 14010KT 6SM BR OVC006
     FM031500 15018KT P6SM SKC=



000
FTUS43 KFGF 031122
TAFGFK
TAF
KGFK 031122Z 0312/0412 15014KT 4SM BR OVC004
     FM031500 15018KT P6SM SKC=



000
FTUS43 KFGF 031122
TAFFAR
TAF
KFAR 031122Z 0312/0412 14010KT 6SM BR OVC006
     FM031500 15018KT P6SM SKC=



000
FTUS43 KFGF 031122
TAFGFK
TAF
KGFK 031122Z 0312/0412 15014KT 4SM BR OVC004
     FM031500 15018KT P6SM SKC=



000
FTUS43 KFGF 030817 AAA
TAFGFK
TAF AMD
KGFK 030817Z 0308/0406 14008KT P6SM SCT250
     FM030900 15011KT 5SM BR OVC006
     FM031500 15017KT P6SM SKC=



000
FTUS43 KFGF 030646 AAA
TAFFAR
TAF AMD
KFAR 030646Z 0307/0406 14010KT P6SM BKN006
      TEMPO 0308/0312 3SM BR OVC004
     FM031500 15017KT P6SM SKC=



000
FTUS43 KFGF 030646 AAA
TAFFAR
TAF AMD
KFAR 030646Z 0307/0406 14010KT P6SM BKN006
      TEMPO 0308/0312 3SM BR OVC004
     FM031500 15017KT P6SM SKC=



000
FTUS43 KFGF 030520
TAFGFK
TAF
KGFK 030520Z 0306/0406 14008KT P6SM SCT250
     FM031500 15017KT P6SM SKC=



000
FTUS43 KFGF 030520
TAFGFK
TAF
KGFK 030520Z 0306/0406 14008KT P6SM SCT250
     FM031500 15017KT P6SM SKC=



000
FTUS43 KFGF 030520
TAFFAR
TAF
KFAR 030520Z 0306/0406 14010KT P6SM SCT250
     FM031500 15017KT P6SM SKC=



000
FTUS43 KFGF 030520
TAFFAR
TAF
KFAR 030520Z 0306/0406 14010KT P6SM SCT250
     FM031500 15017KT P6SM SKC=



000
FTUS43 KFGF 022320
TAFFAR
TAF
KFAR 022320Z 0300/0324 14013KT P6SM SKC
     FM031500 15016KT P6SM SKC=



000
FTUS43 KFGF 022320
TAFFAR
TAF
KFAR 022320Z 0300/0324 14013KT P6SM SKC
     FM031500 15016KT P6SM SKC=



000
FTUS43 KFGF 022320
TAFGFK
TAF
KGFK 022320Z 0300/0324 15008KT P6SM SKC
     FM031500 15017KT P6SM SKC=



000
FTUS43 KFGF 022320
TAFGFK
TAF
KGFK 022320Z 0300/0324 15008KT P6SM SKC
     FM031500 15017KT P6SM SKC=



000
FTUS43 KFGF 021720
TAFFAR
TAF
KFAR 021720Z 0218/0318 15011KT P6SM SKC
     FM031500 15014G23KT P6SM SCT250=



000
FTUS43 KFGF 021720
TAFFAR
TAF
KFAR 021720Z 0218/0318 15011KT P6SM SKC
     FM031500 15014G23KT P6SM SCT250=



000
FTUS43 KFGF 021720
TAFGFK
TAF
KGFK 021720Z 0218/0318 16011KT P6SM SKC
     FM031500 15013G22KT P6SM SCT250=



000
FTUS43 KFGF 021720
TAFGFK
TAF
KGFK 021720Z 0218/0318 16011KT P6SM SKC
     FM031500 15013G22KT P6SM SCT250=



000
FTUS43 KFGF 021443 AAD
TAFGFK
TAF AMD
KGFK 021443Z 0215/0312 17006KT P6SM FEW006
     FM021600 16013KT P6SM SKC=



000
FTUS43 KFGF 021443 AAD
TAFGFK
TAF AMD
KGFK 021443Z 0215/0312 17006KT P6SM FEW006
     FM021600 16013KT P6SM SKC=



000
FTUS43 KFGF 021403 AAC
TAFGFK
TAF AMD
KGFK 021403Z 0214/0312 17006KT 5SM BR BKN004
     FM021600 16013KT P6SM SKC=



000
FTUS43 KFGF 021403 AAC
TAFGFK
TAF AMD
KGFK 021403Z 0214/0312 17006KT 5SM BR BKN004
     FM021600 16013KT P6SM SKC=



000
FTUS43 KFGF 021135 AAB
TAFGFK
TAF AMD
KGFK 021135Z 0212/0312 16007KT 1/2SM FG VV002
      TEMPO 0212/0213 1/4SM FG VV001
     FM021400 16013KT P6SM SKC=



000
FTUS43 KFGF 021135 AAB
TAFGFK
TAF AMD
KGFK 021135Z 0212/0312 16007KT 1/2SM FG VV002
      TEMPO 0212/0213 1/4SM FG VV001
     FM021400 16013KT P6SM SKC=



000
FTUS43 KFGF 021128 AAA
TAFGFK
TAF AMD
KGFK 021128Z 0211/0312 16007KT 3SM BR SCT070
      TEMPO 0212/0213 1/2SM FG BKN002
     FM021600 16013KT P6SM SKC=



000
FTUS43 KFGF 021128 AAA
TAFGFK
TAF AMD
KGFK 021128Z 0211/0312 16007KT 3SM BR SCT070
      TEMPO 0212/0213 1/2SM FG BKN002
     FM021600 16013KT P6SM SKC=



000
FTUS43 KFGF 021120
TAFGFK
TAF
KGFK 021120Z 0212/0312 16007KT P6SM SCT070
      TEMPO 0212/0213 5SM BR BKN004
     FM021600 16013KT P6SM SKC=



000
FTUS43 KFGF 021120
TAFFAR
TAF
KFAR 021120Z 0212/0312 14009KT P6SM SCT080
      TEMPO 0212/0213 4SM BR
     FM021600 15013KT P6SM SKC=



000
FTUS43 KFGF 021120
TAFFAR
TAF
KFAR 021120Z 0212/0312 14009KT P6SM SCT080
      TEMPO 0212/0213 4SM BR
     FM021600 15013KT P6SM SKC=



000
FTUS43 KFGF 021120
TAFGFK
TAF
KGFK 021120Z 0212/0312 16007KT P6SM SCT070
      TEMPO 0212/0213 5SM BR BKN004
     FM021600 16013KT P6SM SKC=



000
FTUS43 KFGF 021100 AAA
TAFGFK
TAF AMD
KGFK 021100Z 0211/0306 15005KT P6SM SCT070
      TEMPO 0211/0213 5SM BR BKN004
     FM021500 16008KT P6SM SKC=



000
FTUS43 KFGF 021100 AAA
TAFGFK
TAF AMD
KGFK 021100Z 0211/0306 15005KT P6SM SCT070
      TEMPO 0211/0213 5SM BR BKN004
     FM021500 16008KT P6SM SKC=



000
FTUS43 KFGF 020520
TAFGFK
TAF
KGFK 020520Z 0206/0306 15005KT P6SM SCT070
     FM021500 16008KT P6SM SKC=



000
FTUS43 KFGF 020520
TAFFAR
TAF
KFAR 020520Z 0206/0306 14006KT P6SM SCT080
      TEMPO 0210/0212 3SM BR
     FM021500 15010KT P6SM SKC=



000
FTUS43 KFGF 020520
TAFFAR
TAF
KFAR 020520Z 0206/0306 14006KT P6SM SCT080
      TEMPO 0210/0212 3SM BR
     FM021500 15010KT P6SM SKC=



000
FTUS43 KFGF 020520
TAFGFK
TAF
KGFK 020520Z 0206/0306 15005KT P6SM SCT070
     FM021500 16008KT P6SM SKC=



000
FTUS43 KFGF 012320
TAFFAR
TAF
KFAR 012320Z 0200/0224 13007KT P6SM SCT120
     FM021500 15010KT P6SM SKC=



000
FTUS43 KFGF 012320
TAFGFK
TAF
KGFK 012320Z 0200/0224 17006KT P6SM SCT120
     FM020600 14006KT P6SM SCT080=



000
FTUS43 KFGF 011720
TAFGFK
TAF
KGFK 011720Z 0118/0218 20010KT P6SM FEW250=



000
FTUS43 KFGF 011720
TAFFAR
TAF
KFAR 011720Z 0118/0218 17007KT P6SM SKC=



000
FTUS43 KFGF 011720
TAFFAR
TAF
KFAR 011720Z 0118/0218 17007KT P6SM SKC=



000
FTUS43 KFGF 011720
TAFGFK
TAF
KGFK 011720Z 0118/0218 20010KT P6SM FEW250=



000
FTUS43 KFGF 011225 AAC
TAFFAR
TAF AMD
KFAR 011225Z 0112/0212 VRB06KT P6SM SCT250
      TEMPO 0112/0113 4SM BR
     FM011300 17007KT P6SM SKC=



000
FTUS43 KFGF 011225 AAC
TAFFAR
TAF AMD
KFAR 011225Z 0112/0212 VRB06KT P6SM SCT250
      TEMPO 0112/0113 4SM BR
     FM011300 17007KT P6SM SKC=



000
FTUS43 KFGF 011203 AAB
TAFFAR
TAF AMD
KFAR 011203Z 0112/0212 VRB06KT 3SM BR SCT250
      TEMPO 0112/0113 1/4SM FG VV005
     FM011400 17007KT P6SM SKC=



000
FTUS43 KFGF 011203 AAB
TAFFAR
TAF AMD
KFAR 011203Z 0112/0212 VRB06KT 3SM BR SCT250
      TEMPO 0112/0113 1/4SM FG VV005
     FM011400 17007KT P6SM SKC=



000
FTUS43 KFGF 011128 AAA
TAFFAR
TAF AMD
KFAR 011128Z 0111/0212 VRB06KT P6SM SCT250
      TEMPO 0112/0113 1SM BR
     FM011500 17007KT P6SM SKC=



000
FTUS43 KFGF 011128 AAA
TAFFAR
TAF AMD
KFAR 011128Z 0111/0212 VRB06KT P6SM SCT250
      TEMPO 0112/0113 1SM BR
     FM011500 17007KT P6SM SKC=



000
FTUS43 KFGF 011120
TAFFAR
TAF
KFAR 011120Z 0112/0212 VRB06KT P6SM SCT250
      TEMPO 0112/0113 5SM BR
     FM011500 17007KT P6SM SKC=



000
FTUS43 KFGF 011120
TAFGFK
TAF
KGFK 011120Z 0112/0212 19004KT P6SM SCT120 SCT250
     FM011500 20010KT P6SM FEW250=



000
FTUS43 KFGF 011120
TAFFAR
TAF
KFAR 011120Z 0112/0212 VRB06KT P6SM SCT250
      TEMPO 0112/0113 5SM BR
     FM011500 17007KT P6SM SKC=



000
FTUS43 KFGF 011120
TAFGFK
TAF
KGFK 011120Z 0112/0212 19004KT P6SM SCT120 SCT250
     FM011500 20010KT P6SM FEW250=



    US Dept of Commerce
    National Oceanic and Atmospheric Administration
    National Weather Service
    1325 East West Highway
    Silver Spring, MD 20910
    Page Author: NWS Internet Services Team
Disclaimer
Information Quality
Credits
Glossary
Privacy Policy
Freedom of Information Act (FOIA)
About Us
Career Opportunities